sensor_id;sensor_type;location;lat;lon;timestamp;P1;durP1;ratioP1;P2;durP2;ratioP2
39176;SDS011;24904;52.208;21.192;2023-07-08T00:02:37;12.60;;;5.70;;
39176;SDS011;24904;52.208;21.192;2023-07-08T00:07:41;9.20;;;5.20;;
39176;SDS011;24904;52.208;21.192;2023-07-08T00:12:45;11.10;;;5.80;;
39176;SDS011;24904;52.208;21.192;2023-07-08T00:17:51;12.90;;;6.30;;
39176;SDS011;24904;52.208;21.192;2023-07-08T00:22:55;10.70;;;5.70;;
39176;SDS011;24904;52.208;21.192;2023-07-08T00:27:58;10.50;;;6.10;;
39176;SDS011;24904;52.208;21.192;2023-07-08T00:33:01;7.70;;;5.30;;
39176;SDS011;24904;52.208;21.192;2023-07-08T00:38:09;10.70;;;5.70;;
39176;SDS011;24904;52.208;21.192;2023-07-08T00:43:16;7.50;;;5.50;;
39176;SDS011;24904;52.208;21.192;2023-07-08T00:48:22;9.20;;;5.80;;
39176;SDS011;24904;52.208;21.192;2023-07-08T00:53:31;7.70;;;5.00;;
39176;SDS011;24904;52.208;21.192;2023-07-08T00:58:37;16.30;;;5.40;;
39176;SDS011;24904;52.208;21.192;2023-07-08T01:03:44;8.90;;;5.70;;
39176;SDS011;24904;52.208;21.192;2023-07-08T01:08:50;12.60;;;6.10;;
39176;SDS011;24904;52.208;21.192;2023-07-08T01:13:53;12.50;;;5.80;;
39176;SDS011;24904;52.208;21.192;2023-07-08T01:18:57;11.00;;;5.70;;
39176;SDS011;24904;52.208;21.192;2023-07-08T01:24:02;11.10;;;5.70;;
39176;SDS011;24904;52.208;21.192;2023-07-08T01:29:09;8.90;;;5.90;;
39176;SDS011;24904;52.208;21.192;2023-07-08T01:34:13;10.60;;;5.70;;
39176;SDS011;24904;52.208;21.192;2023-07-08T01:39:17;9.10;;;5.40;;
39176;SDS011;24904;52.208;21.192;2023-07-08T01:44:26;11.10;;;6.20;;
39176;SDS011;24904;52.208;21.192;2023-07-08T01:49:31;13.70;;;5.50;;
39176;SDS011;24904;52.208;21.192;2023-07-08T01:54:35;10.10;;;6.30;;
39176;SDS011;24904;52.208;21.192;2023-07-08T01:59:39;9.50;;;6.50;;
39176;SDS011;24904;52.208;21.192;2023-07-08T02:04:42;10.10;;;6.00;;
39176;SDS011;24904;52.208;21.192;2023-07-08T02:09:47;8.30;;;5.80;;
39176;SDS011;24904;52.208;21.192;2023-07-08T02:14:50;10.80;;;6.20;;
39176;SDS011;24904;52.208;21.192;2023-07-08T02:19:53;10.30;;;5.90;;
39176;SDS011;24904;52.208;21.192;2023-07-08T02:24:56;10.40;;;5.70;;
39176;SDS011;24904;52.208;21.192;2023-07-08T02:29:59;9.30;;;5.70;;
39176;SDS011;24904;52.208;21.192;2023-07-08T02:35:03;8.70;;;6.30;;
39176;SDS011;24904;52.208;21.192;2023-07-08T02:40:08;11.20;;;6.10;;
39176;SDS011;24904;52.208;21.192;2023-07-08T02:45:12;11.80;;;6.00;;
39176;SDS011;24904;52.208;21.192;2023-07-08T02:50:16;11.00;;;6.30;;
39176;SDS011;24904;52.208;21.192;2023-07-08T02:55:20;7.80;;;6.00;;
39176;SDS011;24904;52.208;21.192;2023-07-08T03:00:23;10.20;;;5.80;;
39176;SDS011;24904;52.208;21.192;2023-07-08T03:05:26;14.90;;;5.90;;
39176;SDS011;24904;52.208;21.192;2023-07-08T03:10:29;9.60;;;6.00;;
39176;SDS011;24904;52.208;21.192;2023-07-08T03:15:32;9.00;;;6.00;;
39176;SDS011;24904;52.208;21.192;2023-07-08T03:20:35;12.20;;;6.00;;
39176;SDS011;24904;52.208;21.192;2023-07-08T03:25:40;7.30;;;5.00;;
39176;SDS011;24904;52.208;21.192;2023-07-08T03:30:44;9.50;;;5.60;;
39176;SDS011;24904;52.208;21.192;2023-07-08T03:35:53;11.20;;;6.10;;
39176;SDS011;24904;52.208;21.192;2023-07-08T03:40:57;10.20;;;6.20;;
39176;SDS011;24904;52.208;21.192;2023-07-08T03:46:00;13.00;;;6.10;;
39176;SDS011;24904;52.208;21.192;2023-07-08T03:51:03;9.00;;;5.80;;
39176;SDS011;24904;52.208;21.192;2023-07-08T03:56:08;10.70;;;6.60;;
39176;SDS011;24904;52.208;21.192;2023-07-08T04:09:46;12.90;;;6.20;;
39176;SDS011;24904;52.208;21.192;2023-07-08T04:14:51;7.80;;;5.40;;
39176;SDS011;24904;52.208;21.192;2023-07-08T04:19:54;10.60;;;5.60;;
39176;SDS011;24904;52.208;21.192;2023-07-08T04:24:57;8.30;;;5.70;;
39176;SDS011;24904;52.208;21.192;2023-07-08T04:30:00;10.00;;;6.50;;
39176;SDS011;24904;52.208;21.192;2023-07-08T04:35:05;6.50;;;5.20;;
39176;SDS011;24904;52.208;21.192;2023-07-08T04:40:11;11.80;;;5.90;;
39176;SDS011;24904;52.208;21.192;2023-07-08T04:45:20;9.40;;;6.60;;
39176;SDS011;24904;52.208;21.192;2023-07-08T04:50:23;7.80;;;5.60;;
39176;SDS011;24904;52.208;21.192;2023-07-08T04:55:26;8.30;;;6.00;;
39176;SDS011;24904;52.208;21.192;2023-07-08T05:00:29;12.90;;;6.70;;
39176;SDS011;24904;52.208;21.192;2023-07-08T05:05:32;12.10;;;8.00;;
39176;SDS011;24904;52.208;21.192;2023-07-08T05:10:35;9.40;;;5.50;;
39176;SDS011;24904;52.208;21.192;2023-07-08T05:15:38;9.00;;;4.80;;
39176;SDS011;24904;52.208;21.192;2023-07-08T05:20:41;10.70;;;5.70;;
39176;SDS011;24904;52.208;21.192;2023-07-08T05:25:51;11.80;;;5.10;;
39176;SDS011;24904;52.208;21.192;2023-07-08T05:30:55;11.90;;;5.70;;
39176;SDS011;24904;52.208;21.192;2023-07-08T05:35:59;8.70;;;5.20;;
39176;SDS011;24904;52.208;21.192;2023-07-08T05:41:02;7.50;;;5.40;;
39176;SDS011;24904;52.208;21.192;2023-07-08T05:46:05;11.30;;;5.10;;
39176;SDS011;24904;52.208;21.192;2023-07-08T05:51:09;8.80;;;4.90;;
39176;SDS011;24904;52.208;21.192;2023-07-08T05:56:12;8.30;;;5.00;;
39176;SDS011;24904;52.208;21.192;2023-07-08T06:01:15;12.10;;;5.30;;
39176;SDS011;24904;52.208;21.192;2023-07-08T06:06:18;16.80;;;5.50;;
39176;SDS011;24904;52.208;21.192;2023-07-08T06:11:21;10.40;;;4.80;;
39176;SDS011;24904;52.208;21.192;2023-07-08T06:16:24;6.70;;;4.00;;
39176;SDS011;24904;52.208;21.192;2023-07-08T06:21:27;6.30;;;3.90;;
39176;SDS011;24904;52.208;21.192;2023-07-08T06:26:30;11.40;;;4.10;;
39176;SDS011;24904;52.208;21.192;2023-07-08T06:31:33;8.90;;;4.40;;
39176;SDS011;24904;52.208;21.192;2023-07-08T06:36:36;10.20;;;3.60;;
39176;SDS011;24904;52.208;21.192;2023-07-08T06:41:39;12.80;;;4.20;;
39176;SDS011;24904;52.208;21.192;2023-07-08T06:46:42;8.90;;;4.30;;
39176;SDS011;24904;52.208;21.192;2023-07-08T06:51:45;7.00;;;3.80;;
39176;SDS011;24904;52.208;21.192;2023-07-08T06:56:48;7.50;;;3.90;;
39176;SDS011;24904;52.208;21.192;2023-07-08T07:01:51;7.80;;;3.20;;
39176;SDS011;24904;52.208;21.192;2023-07-08T07:06:54;4.70;;;3.50;;
39176;SDS011;24904;52.208;21.192;2023-07-08T07:11:57;6.60;;;3.20;;
39176;SDS011;24904;52.208;21.192;2023-07-08T07:17:00;7.30;;;3.20;;
39176;SDS011;24904;52.208;21.192;2023-07-08T07:22:03;8.60;;;3.00;;
39176;SDS011;24904;52.208;21.192;2023-07-08T07:27:08;5.90;;;3.20;;
39176;SDS011;24904;52.208;21.192;2023-07-08T07:32:12;9.10;;;3.10;;
39176;SDS011;24904;52.208;21.192;2023-07-08T07:37:17;5.70;;;2.70;;
39176;SDS011;24904;52.208;21.192;2023-07-08T07:42:22;6.40;;;3.10;;
39176;SDS011;24904;52.208;21.192;2023-07-08T07:47:25;4.10;;;2.60;;
39176;SDS011;24904;52.208;21.192;2023-07-08T07:52:28;4.90;;;2.40;;
39176;SDS011;24904;52.208;21.192;2023-07-08T07:57:31;4.70;;;1.70;;
39176;SDS011;24904;52.208;21.192;2023-07-08T08:02:34;3.70;;;2.30;;
39176;SDS011;24904;52.208;21.192;2023-07-08T08:07:37;6.40;;;2.20;;
39176;SDS011;24904;52.208;21.192;2023-07-08T08:12:41;3.50;;;1.90;;
39176;SDS011;24904;52.208;21.192;2023-07-08T08:17:44;3.70;;;1.90;;
39176;SDS011;24904;52.208;21.192;2023-07-08T08:22:50;4.70;;;2.00;;
39176;SDS011;24904;52.208;21.192;2023-07-08T08:27:53;5.70;;;1.70;;
39176;SDS011;24904;52.208;21.192;2023-07-08T08:32:56;6.80;;;2.10;;
39176;SDS011;24904;52.208;21.192;2023-07-08T08:37:59;9.00;;;2.20;;
39176;SDS011;24904;52.208;21.192;2023-07-08T08:43:04;6.50;;;2.40;;
39176;SDS011;24904;52.208;21.192;2023-07-08T08:48:13;4.70;;;2.10;;
39176;SDS011;24904;52.208;21.192;2023-07-08T08:53:21;3.30;;;2.00;;
39176;SDS011;24904;52.208;21.192;2023-07-08T08:58:30;5.70;;;2.40;;
39176;SDS011;24904;52.208;21.192;2023-07-08T09:03:41;2.90;;;1.70;;
39176;SDS011;24904;52.208;21.192;2023-07-08T09:08:49;7.50;;;2.40;;
39176;SDS011;24904;52.208;21.192;2023-07-08T09:13:53;5.80;;;2.00;;
39176;SDS011;24904;52.208;21.192;2023-07-08T09:18:59;3.80;;;2.20;;
39176;SDS011;24904;52.208;21.192;2023-07-08T09:24:08;61.40;;;7.10;;
39176;SDS011;24904;52.208;21.192;2023-07-08T09:29:18;5.30;;;2.90;;
39176;SDS011;24904;52.208;21.192;2023-07-08T09:34:23;5.50;;;2.30;;
39176;SDS011;24904;52.208;21.192;2023-07-08T09:39:39;12.20;;;2.90;;
39176;SDS011;24904;52.208;21.192;2023-07-08T09:44:43;6.40;;;2.30;;
39176;SDS011;24904;52.208;21.192;2023-07-08T09:49:47;4.30;;;2.00;;
39176;SDS011;24904;52.208;21.192;2023-07-08T09:54:51;3.50;;;2.00;;
39176;SDS011;24904;52.208;21.192;2023-07-08T09:59:55;4.10;;;2.50;;
39176;SDS011;24904;52.208;21.192;2023-07-08T10:05:07;3.90;;;1.90;;
39176;SDS011;24904;52.208;21.192;2023-07-08T10:10:17;4.60;;;2.40;;
39176;SDS011;24904;52.208;21.192;2023-07-08T10:15:31;3.80;;;2.10;;
39176;SDS011;24904;52.208;21.192;2023-07-08T10:20:46;5.10;;;2.30;;
39176;SDS011;24904;52.208;21.192;2023-07-08T10:25:56;3.50;;;1.70;;
39176;SDS011;24904;52.208;21.192;2023-07-08T10:31:11;6.20;;;2.40;;
39176;SDS011;24904;52.208;21.192;2023-07-08T10:36:28;6.80;;;2.60;;
39176;SDS011;24904;52.208;21.192;2023-07-08T10:41:43;11.10;;;3.60;;
39176;SDS011;24904;52.208;21.192;2023-07-08T10:46:57;2.40;;;1.80;;
39176;SDS011;24904;52.208;21.192;2023-07-08T10:52:16;4.70;;;2.30;;
39176;SDS011;24904;52.208;21.192;2023-07-08T10:57:39;5.30;;;2.20;;
39176;SDS011;24904;52.208;21.192;2023-07-08T11:08:31;3.50;;;1.80;;
39176;SDS011;24904;52.208;21.192;2023-07-08T11:13:40;4.00;;;2.20;;
39176;SDS011;24904;52.208;21.192;2023-07-08T11:18:50;3.50;;;2.10;;
39176;SDS011;24904;52.208;21.192;2023-07-08T11:23:59;4.20;;;2.20;;
39176;SDS011;24904;52.208;21.192;2023-07-08T11:29:09;7.50;;;2.30;;
39176;SDS011;24904;52.208;21.192;2023-07-08T11:34:17;3.50;;;2.20;;
39176;SDS011;24904;52.208;21.192;2023-07-08T11:39:31;3.50;;;2.10;;
39176;SDS011;24904;52.208;21.192;2023-07-08T11:44:35;3.70;;;2.10;;
39176;SDS011;24904;52.208;21.192;2023-07-08T11:49:48;4.30;;;2.50;;
39176;SDS011;24904;52.208;21.192;2023-07-08T11:54:57;5.90;;;2.50;;
39176;SDS011;24904;52.208;21.192;2023-07-08T12:00:13;4.60;;;2.30;;
39176;SDS011;24904;52.208;21.192;2023-07-08T12:05:28;4.50;;;2.30;;
39176;SDS011;24904;52.208;21.192;2023-07-08T12:10:34;9.10;;;2.30;;
39176;SDS011;24904;52.208;21.192;2023-07-08T12:15:41;5.30;;;2.70;;
39176;SDS011;24904;52.208;21.192;2023-07-08T12:20:46;3.30;;;2.30;;
39176;SDS011;24904;52.208;21.192;2023-07-08T12:25:51;4.40;;;1.90;;
39176;SDS011;24904;52.208;21.192;2023-07-08T12:30:55;9.10;;;2.40;;
39176;SDS011;24904;52.208;21.192;2023-07-08T12:36:00;6.20;;;2.50;;
39176;SDS011;24904;52.208;21.192;2023-07-08T12:41:08;3.40;;;2.20;;
39176;SDS011;24904;52.208;21.192;2023-07-08T12:46:14;7.30;;;2.50;;
39176;SDS011;24904;52.208;21.192;2023-07-08T12:51:19;8.30;;;3.30;;
39176;SDS011;24904;52.208;21.192;2023-07-08T12:56:29;5.60;;;2.70;;
39176;SDS011;24904;52.208;21.192;2023-07-08T13:01:32;3.60;;;2.30;;
39176;SDS011;24904;52.208;21.192;2023-07-08T13:06:37;3.60;;;2.30;;
39176;SDS011;24904;52.208;21.192;2023-07-08T13:11:41;8.80;;;3.00;;
39176;SDS011;24904;52.208;21.192;2023-07-08T13:16:46;5.80;;;2.60;;
39176;SDS011;24904;52.208;21.192;2023-07-08T13:21:50;6.40;;;2.60;;
39176;SDS011;24904;52.208;21.192;2023-07-08T13:26:55;5.20;;;2.60;;
39176;SDS011;24904;52.208;21.192;2023-07-08T13:32:04;6.00;;;2.50;;
39176;SDS011;24904;52.208;21.192;2023-07-08T13:37:12;5.50;;;2.60;;
39176;SDS011;24904;52.208;21.192;2023-07-08T13:42:15;6.40;;;2.60;;
39176;SDS011;24904;52.208;21.192;2023-07-08T13:47:22;4.20;;;2.80;;
39176;SDS011;24904;52.208;21.192;2023-07-08T13:52:28;4.60;;;2.60;;
39176;SDS011;24904;52.208;21.192;2023-07-08T13:57:32;5.80;;;2.50;;
39176;SDS011;24904;52.208;21.192;2023-07-08T14:02:36;4.20;;;2.20;;
39176;SDS011;24904;52.208;21.192;2023-07-08T14:07:44;6.60;;;2.20;;
39176;SDS011;24904;52.208;21.192;2023-07-08T14:12:47;6.00;;;2.50;;
39176;SDS011;24904;52.208;21.192;2023-07-08T14:17:50;10.40;;;2.50;;
39176;SDS011;24904;52.208;21.192;2023-07-08T14:25:59;3.90;;;2.40;;
39176;SDS011;24904;52.208;21.192;2023-07-08T14:31:02;5.40;;;2.50;;
39176;SDS011;24904;52.208;21.192;2023-07-08T14:36:07;5.60;;;2.60;;
39176;SDS011;24904;52.208;21.192;2023-07-08T14:41:11;4.20;;;2.40;;
39176;SDS011;24904;52.208;21.192;2023-07-08T14:46:14;3.90;;;2.60;;
39176;SDS011;24904;52.208;21.192;2023-07-08T14:51:17;4.30;;;2.30;;
39176;SDS011;24904;52.208;21.192;2023-07-08T14:56:20;4.00;;;2.50;;
39176;SDS011;24904;52.208;21.192;2023-07-08T15:01:23;6.30;;;2.60;;
39176;SDS011;24904;52.208;21.192;2023-07-08T15:06:31;11.00;;;2.20;;
39176;SDS011;24904;52.208;21.192;2023-07-08T15:11:34;4.60;;;2.80;;
39176;SDS011;24904;52.208;21.192;2023-07-08T15:16:39;4.40;;;3.00;;
39176;SDS011;24904;52.208;21.192;2023-07-08T15:21:42;5.00;;;2.70;;
39176;SDS011;24904;52.208;21.192;2023-07-08T15:26:45;5.20;;;2.70;;
39176;SDS011;24904;52.208;21.192;2023-07-08T15:31:50;4.00;;;2.60;;
39176;SDS011;24904;52.208;21.192;2023-07-08T15:36:53;4.90;;;2.90;;
39176;SDS011;24904;52.208;21.192;2023-07-08T15:41:56;3.90;;;2.50;;
39176;SDS011;24904;52.208;21.192;2023-07-08T15:46:59;4.40;;;2.40;;
39176;SDS011;24904;52.208;21.192;2023-07-08T15:52:04;12.50;;;3.90;;
39176;SDS011;24904;52.208;21.192;2023-07-08T15:57:09;4.90;;;2.60;;
39176;SDS011;24904;52.208;21.192;2023-07-08T16:02:19;4.70;;;2.70;;
39176;SDS011;24904;52.208;21.192;2023-07-08T16:07:27;5.10;;;2.50;;
39176;SDS011;24904;52.208;21.192;2023-07-08T16:12:30;9.80;;;4.30;;
39176;SDS011;24904;52.208;21.192;2023-07-08T16:17:34;5.90;;;3.00;;
39176;SDS011;24904;52.208;21.192;2023-07-08T16:22:39;7.30;;;3.00;;
39176;SDS011;24904;52.208;21.192;2023-07-08T16:27:42;9.70;;;3.10;;
39176;SDS011;24904;52.208;21.192;2023-07-08T16:32:47;6.50;;;2.60;;
39176;SDS011;24904;52.208;21.192;2023-07-08T16:37:51;13.30;;;2.90;;
39176;SDS011;24904;52.208;21.192;2023-07-08T16:42:56;16.40;;;3.10;;
39176;SDS011;24904;52.208;21.192;2023-07-08T16:47:59;9.80;;;2.70;;
39176;SDS011;24904;52.208;21.192;2023-07-08T16:53:02;7.30;;;2.70;;
39176;SDS011;24904;52.208;21.192;2023-07-08T16:58:10;5.70;;;2.60;;
39176;SDS011;24904;52.208;21.192;2023-07-08T17:03:14;5.40;;;2.60;;
39176;SDS011;24904;52.208;21.192;2023-07-08T17:08:18;4.50;;;2.40;;
39176;SDS011;24904;52.208;21.192;2023-07-08T17:13:21;4.80;;;2.70;;
39176;SDS011;24904;52.208;21.192;2023-07-08T17:18:25;8.20;;;2.70;;
39176;SDS011;24904;52.208;21.192;2023-07-08T17:23:29;5.70;;;3.10;;
39176;SDS011;24904;52.208;21.192;2023-07-08T17:28:32;5.80;;;2.50;;
39176;SDS011;24904;52.208;21.192;2023-07-08T17:33:35;6.00;;;2.60;;
39176;SDS011;24904;52.208;21.192;2023-07-08T17:38:41;4.20;;;2.70;;
39176;SDS011;24904;52.208;21.192;2023-07-08T17:48:48;6.80;;;3.00;;
39176;SDS011;24904;52.208;21.192;2023-07-08T17:53:52;5.10;;;3.10;;
39176;SDS011;24904;52.208;21.192;2023-07-08T17:58:55;6.60;;;3.30;;
39176;SDS011;24904;52.208;21.192;2023-07-08T18:03:58;5.90;;;2.70;;
39176;SDS011;24904;52.208;21.192;2023-07-08T18:09:01;4.80;;;2.60;;
39176;SDS011;24904;52.208;21.192;2023-07-08T18:14:04;6.00;;;3.90;;
39176;SDS011;24904;52.208;21.192;2023-07-08T18:19:07;6.90;;;3.60;;
39176;SDS011;24904;52.208;21.192;2023-07-08T18:24:11;6.90;;;4.20;;
39176;SDS011;24904;52.208;21.192;2023-07-08T18:29:14;5.50;;;3.80;;
39176;SDS011;24904;52.208;21.192;2023-07-08T18:34:17;10.80;;;3.60;;
39176;SDS011;24904;52.208;21.192;2023-07-08T18:39:21;5.50;;;3.30;;
39176;SDS011;24904;52.208;21.192;2023-07-08T18:44:25;5.30;;;3.10;;
39176;SDS011;24904;52.208;21.192;2023-07-08T18:49:31;7.20;;;3.30;;
39176;SDS011;24904;52.208;21.192;2023-07-08T18:54:34;6.10;;;4.00;;
39176;SDS011;24904;52.208;21.192;2023-07-08T18:59:37;5.40;;;3.50;;
39176;SDS011;24904;52.208;21.192;2023-07-08T19:04:40;6.80;;;3.30;;
39176;SDS011;24904;52.208;21.192;2023-07-08T19:09:43;5.50;;;3.60;;
39176;SDS011;24904;52.208;21.192;2023-07-08T19:14:46;7.20;;;4.10;;
39176;SDS011;24904;52.208;21.192;2023-07-08T19:19:50;13.90;;;4.10;;
39176;SDS011;24904;52.208;21.192;2023-07-08T19:24:53;11.80;;;4.20;;
39176;SDS011;24904;52.208;21.192;2023-07-08T19:29:56;8.70;;;3.90;;
39176;SDS011;24904;52.208;21.192;2023-07-08T19:34:59;8.30;;;4.90;;
39176;SDS011;24904;52.208;21.192;2023-07-08T19:40:03;6.20;;;4.60;;
39176;SDS011;24904;52.208;21.192;2023-07-08T19:45:21;9.20;;;4.40;;
39176;SDS011;24904;52.208;21.192;2023-07-08T19:56:31;8.60;;;4.80;;
39176;SDS011;24904;52.208;21.192;2023-07-08T20:01:34;13.80;;;6.80;;
39176;SDS011;24904;52.208;21.192;2023-07-08T20:06:37;16.60;;;12.30;;
39176;SDS011;24904;52.208;21.192;2023-07-08T20:11:40;142.70;;;89.90;;
39176;SDS011;24904;52.208;21.192;2023-07-08T20:16:43;82.50;;;55.20;;
39176;SDS011;24904;52.208;21.192;2023-07-08T20:21:46;74.50;;;50.10;;
39176;SDS011;24904;52.208;21.192;2023-07-08T20:26:49;70.60;;;47.60;;
39176;SDS011;24904;52.208;21.192;2023-07-08T20:31:52;32.90;;;21.60;;
39176;SDS011;24904;52.208;21.192;2023-07-08T20:36:55;20.20;;;13.90;;
39176;SDS011;24904;52.208;21.192;2023-07-08T20:41:58;15.30;;;11.60;;
39176;SDS011;24904;52.208;21.192;2023-07-08T20:47:08;16.70;;;10.50;;
39176;SDS011;24904;52.208;21.192;2023-07-08T20:52:16;16.50;;;11.20;;
39176;SDS011;24904;52.208;21.192;2023-07-08T20:57:19;19.30;;;11.60;;
39176;SDS011;24904;52.208;21.192;2023-07-08T21:02:23;19.30;;;11.60;;
39176;SDS011;24904;52.208;21.192;2023-07-08T21:07:27;15.70;;;9.50;;
39176;SDS011;24904;52.208;21.192;2023-07-08T21:12:30;19.60;;;9.30;;
39176;SDS011;24904;52.208;21.192;2023-07-08T21:17:33;20.00;;;9.40;;
39176;SDS011;24904;52.208;21.192;2023-07-08T21:22:38;16.00;;;8.80;;
39176;SDS011;24904;52.208;21.192;2023-07-08T21:27:41;19.50;;;8.30;;
39176;SDS011;24904;52.208;21.192;2023-07-08T21:32:46;14.90;;;8.40;;
39176;SDS011;24904;52.208;21.192;2023-07-08T21:37:50;9.00;;;7.20;;
39176;SDS011;24904;52.208;21.192;2023-07-08T21:42:54;13.10;;;6.60;;
39176;SDS011;24904;52.208;21.192;2023-07-08T21:47:57;12.30;;;7.00;;
39176;SDS011;24904;52.208;21.192;2023-07-08T21:53:00;11.90;;;7.50;;
39176;SDS011;24904;52.208;21.192;2023-07-08T22:04:08;10.50;;;6.70;;
39176;SDS011;24904;52.208;21.192;2023-07-08T22:09:13;12.10;;;7.00;;
39176;SDS011;24904;52.208;21.192;2023-07-08T22:14:16;11.20;;;7.20;;
39176;SDS011;24904;52.208;21.192;2023-07-08T22:19:19;12.80;;;7.60;;
39176;SDS011;24904;52.208;21.192;2023-07-08T22:24:22;12.70;;;7.70;;
39176;SDS011;24904;52.208;21.192;2023-07-08T22:29:25;12.40;;;8.00;;
39176;SDS011;24904;52.208;21.192;2023-07-08T22:34:28;16.50;;;8.50;;
39176;SDS011;24904;52.208;21.192;2023-07-08T22:39:31;13.20;;;8.50;;
39176;SDS011;24904;52.208;21.192;2023-07-08T22:44:34;14.80;;;8.40;;
39176;SDS011;24904;52.208;21.192;2023-07-08T22:49:37;13.80;;;8.60;;
39176;SDS011;24904;52.208;21.192;2023-07-08T22:54:41;14.40;;;8.60;;
39176;SDS011;24904;52.208;21.192;2023-07-08T22:59:44;14.00;;;8.90;;
39176;SDS011;24904;52.208;21.192;2023-07-08T23:04:47;14.80;;;9.80;;
39176;SDS011;24904;52.208;21.192;2023-07-08T23:09:50;13.70;;;8.90;;
39176;SDS011;24904;52.208;21.192;2023-07-08T23:14:53;17.90;;;10.50;;
39176;SDS011;24904;52.208;21.192;2023-07-08T23:19:56;17.20;;;11.40;;
39176;SDS011;24904;52.208;21.192;2023-07-08T23:24:59;19.10;;;9.20;;
39176;SDS011;24904;52.208;21.192;2023-07-08T23:30:02;17.60;;;9.20;;
39176;SDS011;24904;52.208;21.192;2023-07-08T23:35:07;13.10;;;7.40;;
39176;SDS011;24904;52.208;21.192;2023-07-08T23:40:13;9.00;;;6.00;;
39176;SDS011;24904;52.208;21.192;2023-07-08T23:45:17;10.00;;;6.60;;
39176;SDS011;24904;52.208;21.192;2023-07-08T23:50:20;9.20;;;6.40;;
39176;SDS011;24904;52.208;21.192;2023-07-08T23:55:23;11.70;;;5.90;;
